Hauptseite
METAR-TAF:

METAR-TAF

Flughäfen :

Diego Garcia, Britisches Territorium im Indischen Ozean

Breite: 07-18S, Länge: 072-24E, Höhe: 1 m

Beobachtung

Neuester Wetterbericht von vor 14 Minuten, um 20:55 UTC
Windstille
Temperatur 28°C
Luftfeuchtigkeit 89%
Luftdruck 1009 hPa
Sichtweite 10 km oder mehr
Leicht bewölkt in der Höhe von 2100 ft
Aufgelockert bewölkt in der Höhe von 25000 ft

METAR: FJDG 242055Z 00000KT 9999 FEW021 SCT250 28/26 A2980 RMK SLP088 8/101 T02830255 57014

Zeit: 03:09 (21:09 UTC)

Prognose

Neuester Wetterbericht von vor 4 Stunden und 9 Minuten, um 17:00 UTC
Gültige Prognose vom 24 um 17 UTC bis 25 um 23 UTC
Wind 6 kt aus unterschiedlichen Richtungen
Sichtweite 10 km oder mehr
Aufgelockert bewölkt in der Höhe von 2000 ft
Durchbrochene Bewölkung in der Höhe von 9000 ft

TAF: FJDG 241700Z 2417/2523 VRB06KT 9999 SCT020 BKN090 QNH2976INS TX34/2507Z TN27/2422Z

Wetterbeobachtungen und Prognosen von mehr als 4000 Flughäfen (METAR und TAF Bericht).

Die verfügbaren Stationen werden durch gelbe und rote Markierungen auf der Karte dargestellt.

Führen Sie die Maus auf sie, um den Namen der Station zu sehen.

Darauf klicken, um die Beobachtung von Wetterbeobachtungen und Prognosen zu sehen.

Um die Karte zu ändern : klicken Sie auf den grünen Tasten mit einem schwarzen Kreuz Zum Vergrößern, auf den grünen Button mit einem Gedankenstrich zu verkleinern, oder auf die grünen Pfeile für benachbarte Karten.


METAR-TAF: